sensor_id;sensor_type;location;lat;lon;timestamp;P1;durP1;ratioP1;P2;durP2;ratioP2
3549;SDS011;45572;48.804;8.330;2022-10-16T02:09:33;5.13;;;1.30;;
3549;SDS011;45572;48.804;8.330;2022-10-16T02:12:34;2.27;;;1.20;;
3549;SDS011;45572;48.804;8.330;2022-10-16T02:15:10;6.20;;;1.10;;
3549;SDS011;45572;48.804;8.330;2022-10-16T02:17:38;5.50;;;1.30;;
3549;SDS011;45572;48.804;8.330;2022-10-16T02:20:06;3.90;;;1.23;;
3549;SDS011;45572;48.804;8.330;2022-10-16T02:22:35;14.40;;;1.73;;
3549;SDS011;45572;48.804;8.330;2022-10-16T02:25:08;6.00;;;0.97;;
3549;SDS011;45572;48.804;8.330;2022-10-16T02:27:41;3.03;;;1.23;;
3549;SDS011;45572;48.804;8.330;2022-10-16T02:30:13;1.23;;;0.80;;
3549;SDS011;45572;48.804;8.330;2022-10-16T02:32:45;6.83;;;0.90;;
3549;SDS011;45572;48.804;8.330;2022-10-16T02:35:15;3.23;;;1.10;;
3549;SDS011;45572;48.804;8.330;2022-10-16T02:37:45;3.80;;;1.10;;
3549;SDS011;45572;48.804;8.330;2022-10-16T02:40:16;2.67;;;1.17;;
3549;SDS011;45572;48.804;8.330;2022-10-16T02:42:50;2.80;;;1.20;;
3549;SDS011;45572;48.804;8.330;2022-10-16T02:45:20;4.23;;;0.80;;
3549;SDS011;45572;48.804;8.330;2022-10-16T02:47:48;3.37;;;0.80;;
3549;SDS011;45572;48.804;8.330;2022-10-16T02:50:16;1.37;;;0.90;;
3549;SDS011;45572;48.804;8.330;2022-10-16T02:52:44;4.33;;;1.27;;
3549;SDS011;45572;48.804;8.330;2022-10-16T02:55:12;1.83;;;0.80;;
3549;SDS011;45572;48.804;8.330;2022-10-16T02:57:41;4.77;;;1.00;;
3549;SDS011;45572;48.804;8.330;2022-10-16T03:00:09;1.00;;;0.70;;
3549;SDS011;45572;48.804;8.330;2022-10-16T03:02:40;3.23;;;1.30;;
3549;SDS011;45572;48.804;8.330;2022-10-16T03:05:08;8.93;;;1.20;;
3549;SDS011;45572;48.804;8.330;2022-10-16T03:07:36;3.77;;;1.33;;
3549;SDS011;45572;48.804;8.330;2022-10-16T03:10:05;3.90;;;1.20;;
3549;SDS011;45572;48.804;8.330;2022-10-16T03:12:33;3.03;;;1.13;;
3549;SDS011;45572;48.804;8.330;2022-10-16T03:15:02;1.50;;;1.17;;
3549;SDS011;45572;48.804;8.330;2022-10-16T03:17:31;1.77;;;0.90;;
3549;SDS011;45572;48.804;8.330;2022-10-16T03:19:59;2.63;;;1.20;;
3549;SDS011;45572;48.804;8.330;2022-10-16T03:22:27;3.70;;;1.30;;
3549;SDS011;45572;48.804;8.330;2022-10-16T03:24:54;5.90;;;1.10;;
3549;SDS011;45572;48.804;8.330;2022-10-16T03:27:22;3.37;;;1.13;;
3549;SDS011;45572;48.804;8.330;2022-10-16T03:29:50;2.50;;;0.80;;
3549;SDS011;45572;48.804;8.330;2022-10-16T03:32:19;2.30;;;1.07;;
3549;SDS011;45572;48.804;8.330;2022-10-16T03:34:47;3.87;;;1.30;;
3549;SDS011;45572;48.804;8.330;2022-10-16T03:37:15;1.90;;;1.00;;
3549;SDS011;45572;48.804;8.330;2022-10-16T03:39:43;6.73;;;0.77;;
3549;SDS011;45572;48.804;8.330;2022-10-16T03:42:11;2.97;;;1.37;;
3549;SDS011;45572;48.804;8.330;2022-10-16T03:44:38;10.83;;;1.80;;
3549;SDS011;45572;48.804;8.330;2022-10-16T03:47:06;1.57;;;1.00;;
3549;SDS011;45572;48.804;8.330;2022-10-16T03:49:35;2.00;;;1.30;;
3549;SDS011;45572;48.804;8.330;2022-10-16T03:52:03;2.77;;;0.90;;
3549;SDS011;45572;48.804;8.330;2022-10-16T03:54:31;1.50;;;0.90;;
3549;SDS011;45572;48.804;8.330;2022-10-16T03:57:00;2.40;;;0.90;;
3549;SDS011;45572;48.804;8.330;2022-10-16T03:59:28;5.43;;;0.90;;
3549;SDS011;45572;48.804;8.330;2022-10-16T04:01:55;5.83;;;1.50;;
3549;SDS011;45572;48.804;8.330;2022-10-16T04:04:23;4.73;;;1.00;;
3549;SDS011;45572;48.804;8.330;2022-10-16T04:06:53;4.60;;;1.33;;
3549;SDS011;45572;48.804;8.330;2022-10-16T04:09:20;4.63;;;0.97;;
3549;SDS011;45572;48.804;8.330;2022-10-16T04:11:48;2.80;;;1.30;;
3549;SDS011;45572;48.804;8.330;2022-10-16T04:14:16;2.80;;;1.17;;
3549;SDS011;45572;48.804;8.330;2022-10-16T04:16:44;2.83;;;1.10;;
3549;SDS011;45572;48.804;8.330;2022-10-16T04:19:12;4.20;;;1.00;;
3549;SDS011;45572;48.804;8.330;2022-10-16T04:21:40;4.80;;;1.07;;
3549;SDS011;45572;48.804;8.330;2022-10-16T04:24:09;4.87;;;1.30;;
3549;SDS011;45572;48.804;8.330;2022-10-16T04:26:37;10.23;;;2.07;;
3549;SDS011;45572;48.804;8.330;2022-10-16T04:29:05;6.30;;;1.40;;
3549;SDS011;45572;48.804;8.330;2022-10-16T04:31:33;6.63;;;1.70;;
3549;SDS011;45572;48.804;8.330;2022-10-16T04:34:00;8.70;;;1.70;;
3549;SDS011;45572;48.804;8.330;2022-10-16T04:36:28;6.63;;;1.43;;
3549;SDS011;45572;48.804;8.330;2022-10-16T04:38:56;1.50;;;1.00;;
3549;SDS011;45572;48.804;8.330;2022-10-16T04:41:25;1.73;;;1.30;;
3549;SDS011;45572;48.804;8.330;2022-10-16T04:43:53;1.50;;;1.00;;
3549;SDS011;45572;48.804;8.330;2022-10-16T04:46:21;8.43;;;2.10;;
3549;SDS011;45572;48.804;8.330;2022-10-16T04:48:49;2.30;;;1.07;;
3549;SDS011;45572;48.804;8.330;2022-10-16T04:51:17;7.07;;;1.63;;
3549;SDS011;45572;48.804;8.330;2022-10-16T04:53:58;6.63;;;1.20;;
3549;SDS011;45572;48.804;8.330;2022-10-16T04:56:27;9.87;;;1.87;;
3549;SDS011;45572;48.804;8.330;2022-10-16T04:58:55;2.27;;;1.10;;
3549;SDS011;45572;48.804;8.330;2022-10-16T05:01:23;3.80;;;1.07;;
3549;SDS011;45572;48.804;8.330;2022-10-16T05:03:50;10.70;;;2.10;;
3549;SDS011;45572;48.804;8.330;2022-10-16T05:06:18;2.90;;;1.13;;
3549;SDS011;45572;48.804;8.330;2022-10-16T05:08:47;5.10;;;1.40;;
3549;SDS011;45572;48.804;8.330;2022-10-16T05:11:15;5.10;;;1.40;;
3549;SDS011;45572;48.804;8.330;2022-10-16T05:13:44;6.07;;;1.40;;
3549;SDS011;45572;48.804;8.330;2022-10-16T05:16:14;7.87;;;1.90;;
3549;SDS011;45572;48.804;8.330;2022-10-16T05:18:42;4.93;;;1.67;;
3549;SDS011;45572;48.804;8.330;2022-10-16T05:21:10;6.90;;;1.17;;
3549;SDS011;45572;48.804;8.330;2022-10-16T05:23:37;5.57;;;1.37;;
3549;SDS011;45572;48.804;8.330;2022-10-16T05:26:05;8.07;;;1.42;;
3549;SDS011;45572;48.804;8.330;2022-10-16T05:28:33;3.77;;;1.90;;
3549;SDS011;45572;48.804;8.330;2022-10-16T05:31:04;2.43;;;1.10;;
3549;SDS011;45572;48.804;8.330;2022-10-16T05:33:33;5.47;;;1.17;;
3549;SDS011;45572;48.804;8.330;2022-10-16T05:36:01;2.30;;;1.30;;
3549;SDS011;45572;48.804;8.330;2022-10-16T05:38:29;3.10;;;1.40;;
3549;SDS011;45572;48.804;8.330;2022-10-16T05:40:57;2.13;;;1.33;;
3549;SDS011;45572;48.804;8.330;2022-10-16T05:43:26;4.00;;;1.57;;
3549;SDS011;45572;48.804;8.330;2022-10-16T05:45:55;3.83;;;1.20;;
3549;SDS011;45572;48.804;8.330;2022-10-16T05:48:24;6.00;;;1.20;;
3549;SDS011;45572;48.804;8.330;2022-10-16T05:50:56;6.00;;;1.30;;
3549;SDS011;45572;48.804;8.330;2022-10-16T05:53:25;3.63;;;1.13;;
3549;SDS011;45572;48.804;8.330;2022-10-16T05:55:54;2.83;;;1.30;;
3549;SDS011;45572;48.804;8.330;2022-10-16T05:58:22;3.42;;;1.70;;
3549;SDS011;45572;48.804;8.330;2022-10-16T06:00:54;2.80;;;1.53;;
3549;SDS011;45572;48.804;8.330;2022-10-16T06:03:23;4.20;;;1.50;;
3549;SDS011;45572;48.804;8.330;2022-10-16T06:05:51;5.40;;;1.23;;
3549;SDS011;45572;48.804;8.330;2022-10-16T06:08:20;2.77;;;1.13;;
3549;SDS011;45572;48.804;8.330;2022-10-16T06:10:57;4.30;;;1.40;;
3549;SDS011;45572;48.804;8.330;2022-10-16T06:13:27;2.93;;;1.53;;
3549;SDS011;45572;48.804;8.330;2022-10-16T06:15:56;3.60;;;1.77;;
3549;SDS011;45572;48.804;8.330;2022-10-16T06:18:26;5.97;;;1.43;;
3549;SDS011;45572;48.804;8.330;2022-10-16T06:20:55;4.00;;;1.70;;
3549;SDS011;45572;48.804;8.330;2022-10-16T06:23:23;5.87;;;1.47;;
3549;SDS011;45572;48.804;8.330;2022-10-16T06:25:51;4.50;;;1.90;;
3549;SDS011;45572;48.804;8.330;2022-10-16T06:28:18;7.60;;;1.67;;
3549;SDS011;45572;48.804;8.330;2022-10-16T06:30:46;4.77;;;1.97;;
3549;SDS011;45572;48.804;8.330;2022-10-16T06:33:14;5.07;;;1.60;;
3549;SDS011;45572;48.804;8.330;2022-10-16T06:35:43;4.13;;;1.50;;
3549;SDS011;45572;48.804;8.330;2022-10-16T06:38:11;2.60;;;1.20;;
3549;SDS011;45572;48.804;8.330;2022-10-16T06:40:39;10.70;;;2.13;;
3549;SDS011;45572;48.804;8.330;2022-10-16T06:43:07;4.40;;;1.20;;
3549;SDS011;45572;48.804;8.330;2022-10-16T06:45:34;3.33;;;1.47;;
3549;SDS011;45572;48.804;8.330;2022-10-16T06:48:02;7.17;;;1.63;;
3549;SDS011;45572;48.804;8.330;2022-10-16T06:50:30;5.30;;;1.53;;
3549;SDS011;45572;48.804;8.330;2022-10-16T06:52:59;11.80;;;1.80;;
3549;SDS011;45572;48.804;8.330;2022-10-16T06:55:27;16.97;;;2.70;;
3549;SDS011;45572;48.804;8.330;2022-10-16T06:57:55;2.90;;;1.20;;
3549;SDS011;45572;48.804;8.330;2022-10-16T07:00:22;2.27;;;1.17;;
3549;SDS011;45572;48.804;8.330;2022-10-16T07:02:55;4.47;;;1.47;;
3549;SDS011;45572;48.804;8.330;2022-10-16T07:05:23;11.70;;;3.83;;
3549;SDS011;45572;48.804;8.330;2022-10-16T07:07:51;2.73;;;1.40;;
3549;SDS011;45572;48.804;8.330;2022-10-16T07:10:20;5.73;;;1.90;;
3549;SDS011;45572;48.804;8.330;2022-10-16T07:12:50;3.60;;;1.43;;
3549;SDS011;45572;48.804;8.330;2022-10-16T07:15:18;1.47;;;1.17;;
3549;SDS011;45572;48.804;8.330;2022-10-16T07:17:45;2.93;;;1.67;;
3549;SDS011;45572;48.804;8.330;2022-10-16T07:20:13;3.63;;;1.53;;
3549;SDS011;45572;48.804;8.330;2022-10-16T07:22:41;3.20;;;1.63;;
3549;SDS011;45572;48.804;8.330;2022-10-16T07:25:09;9.83;;;1.33;;
3549;SDS011;45572;48.804;8.330;2022-10-16T07:27:38;7.83;;;1.40;;
3549;SDS011;45572;48.804;8.330;2022-10-16T07:30:06;3.30;;;1.37;;
3549;SDS011;45572;48.804;8.330;2022-10-16T07:32:34;5.87;;;1.60;;
3549;SDS011;45572;48.804;8.330;2022-10-16T07:35:02;2.53;;;1.03;;
3549;SDS011;45572;48.804;8.330;2022-10-16T07:37:31;2.40;;;1.20;;
3549;SDS011;45572;48.804;8.330;2022-10-16T07:39:59;1.20;;;0.90;;
3549;SDS011;45572;48.804;8.330;2022-10-16T07:42:27;1.87;;;0.97;;
3549;SDS011;45572;48.804;8.330;2022-10-16T07:44:57;3.87;;;1.13;;
3549;SDS011;45572;48.804;8.330;2022-10-16T07:47:25;3.07;;;1.40;;
3549;SDS011;45572;48.804;8.330;2022-10-16T07:49:55;3.53;;;1.30;;
3549;SDS011;45572;48.804;8.330;2022-10-16T07:52:23;2.77;;;1.00;;
3549;SDS011;45572;48.804;8.330;2022-10-16T07:54:51;3.00;;;1.30;;
3549;SDS011;45572;48.804;8.330;2022-10-16T07:57:24;4.30;;;1.00;;
3549;SDS011;45572;48.804;8.330;2022-10-16T07:59:52;3.10;;;1.20;;
3549;SDS011;45572;48.804;8.330;2022-10-16T08:02:21;3.10;;;1.50;;
3549;SDS011;45572;48.804;8.330;2022-10-16T08:04:49;2.70;;;1.20;;
3549;SDS011;45572;48.804;8.330;2022-10-16T08:07:17;2.50;;;1.03;;
3549;SDS011;45572;48.804;8.330;2022-10-16T08:09:48;2.40;;;0.80;;
3549;SDS011;45572;48.804;8.330;2022-10-16T08:12:17;7.67;;;1.77;;
3549;SDS011;45572;48.804;8.330;2022-10-16T08:14:45;2.73;;;1.30;;
3549;SDS011;45572;48.804;8.330;2022-10-16T08:17:15;2.20;;;1.33;;
3549;SDS011;45572;48.804;8.330;2022-10-16T08:19:45;4.13;;;1.97;;
3549;SDS011;45572;48.804;8.330;2022-10-16T08:22:13;3.73;;;1.57;;
3549;SDS011;45572;48.804;8.330;2022-10-16T08:24:41;3.60;;;1.70;;
3549;SDS011;45572;48.804;8.330;2022-10-16T08:27:09;6.37;;;2.47;;
3549;SDS011;45572;48.804;8.330;2022-10-16T08:29:37;10.43;;;2.27;;
3549;SDS011;45572;48.804;8.330;2022-10-16T08:32:05;7.30;;;2.00;;
3549;SDS011;45572;48.804;8.330;2022-10-16T08:34:33;3.67;;;2.17;;
3549;SDS011;45572;48.804;8.330;2022-10-16T08:37:02;5.93;;;1.90;;
3549;SDS011;45572;48.804;8.330;2022-10-16T08:39:30;2.47;;;2.10;;
3549;SDS011;45572;48.804;8.330;2022-10-16T08:42:04;2.90;;;1.00;;
3549;SDS011;45572;48.804;8.330;2022-10-16T08:44:44;2.27;;;1.17;;
3549;SDS011;45572;48.804;8.330;2022-10-16T08:47:31;3.07;;;1.37;;
3549;SDS011;45572;48.804;8.330;2022-10-16T08:50:11;5.53;;;1.30;;
3549;SDS011;45572;48.804;8.330;2022-10-16T08:52:43;1.00;;;0.70;;
3549;SDS011;45572;48.804;8.330;2022-10-16T08:55:17;5.93;;;1.10;;
3549;SDS011;45572;48.804;8.330;2022-10-16T08:57:55;11.30;;;1.60;;
3549;SDS011;45572;48.804;8.330;2022-10-16T09:00:23;2.27;;;0.90;;
3549;SDS011;45572;48.804;8.330;2022-10-16T09:02:57;2.40;;;0.97;;
3549;SDS011;45572;48.804;8.330;2022-10-16T09:05:37;1.83;;;1.27;;
3549;SDS011;45572;48.804;8.330;2022-10-16T09:08:19;3.80;;;1.20;;
3549;SDS011;45572;48.804;8.330;2022-10-16T09:10:55;2.50;;;0.90;;
3549;SDS011;45572;48.804;8.330;2022-10-16T09:13:27;6.43;;;1.00;;
3549;SDS011;45572;48.804;8.330;2022-10-16T09:15:59;2.17;;;0.80;;
3549;SDS011;45572;48.804;8.330;2022-10-16T09:18:37;3.20;;;0.93;;
3549;SDS011;45572;48.804;8.330;2022-10-16T09:21:13;5.73;;;0.83;;
3549;SDS011;45572;48.804;8.330;2022-10-16T09:23:44;1.50;;;0.90;;
3549;SDS011;45572;48.804;8.330;2022-10-16T09:26:14;0.90;;;0.70;;
3549;SDS011;45572;48.804;8.330;2022-10-16T09:28:45;2.53;;;0.80;;
3549;SDS011;45572;48.804;8.330;2022-10-16T09:31:15;1.30;;;0.90;;
3549;SDS011;45572;48.804;8.330;2022-10-16T09:33:49;3.37;;;1.43;;
3549;SDS011;45572;48.804;8.330;2022-10-16T09:36:20;4.50;;;1.33;;
3549;SDS011;45572;48.804;8.330;2022-10-16T09:38:50;1.80;;;1.60;;
3549;SDS011;45572;48.804;8.330;2022-10-16T09:41:29;1.87;;;1.30;;
3549;SDS011;45572;48.804;8.330;2022-10-16T09:43:57;4.30;;;1.23;;
3549;SDS011;45572;48.804;8.330;2022-10-16T09:46:28;5.63;;;1.97;;
3549;SDS011;45572;48.804;8.330;2022-10-16T09:48:58;3.67;;;1.50;;
3549;SDS011;45572;48.804;8.330;2022-10-16T09:51:28;2.97;;;1.70;;
3549;SDS011;45572;48.804;8.330;2022-10-16T09:53:59;6.27;;;2.13;;
3549;SDS011;45572;48.804;8.330;2022-10-16T09:56:28;4.67;;;2.43;;
3549;SDS011;45572;48.804;8.330;2022-10-16T09:58:59;6.70;;;2.53;;
3549;SDS011;45572;48.804;8.330;2022-10-16T10:01:29;6.43;;;1.30;;
3549;SDS011;45572;48.804;8.330;2022-10-16T10:04:02;3.50;;;1.30;;
3549;SDS011;45572;48.804;8.330;2022-10-16T10:06:31;7.60;;;1.23;;
3549;SDS011;45572;48.804;8.330;2022-10-16T10:09:06;2.07;;;1.20;;
3549;SDS011;45572;48.804;8.330;2022-10-16T10:11:44;7.63;;;1.73;;
3549;SDS011;45572;48.804;8.330;2022-10-16T10:14:19;1.97;;;0.97;;
3549;SDS011;45572;48.804;8.330;2022-10-16T10:16:50;2.50;;;1.30;;
3549;SDS011;45572;48.804;8.330;2022-10-16T10:19:20;3.30;;;1.07;;
3549;SDS011;45572;48.804;8.330;2022-10-16T10:21:54;2.37;;;1.20;;
3549;SDS011;45572;48.804;8.330;2022-10-16T10:24:23;1.77;;;0.80;;
3549;SDS011;45572;48.804;8.330;2022-10-16T10:26:54;1.87;;;1.07;;
3549;SDS011;45572;48.804;8.330;2022-10-16T10:29:32;3.57;;;1.00;;
3549;SDS011;45572;48.804;8.330;2022-10-16T10:32:12;8.63;;;1.33;;
3549;SDS011;45572;48.804;8.330;2022-10-16T10:34:53;4.60;;;1.00;;
3549;SDS011;45572;48.804;8.330;2022-10-16T10:37:35;1.93;;;1.33;;
3549;SDS011;45572;48.804;8.330;2022-10-16T10:40:22;3.43;;;1.20;;
3549;SDS011;45572;48.804;8.330;2022-10-16T10:43:00;3.30;;;1.50;;
3549;SDS011;45572;48.804;8.330;2022-10-16T10:45:38;2.20;;;1.00;;
3549;SDS011;45572;48.804;8.330;2022-10-16T10:48:14;2.73;;;1.37;;
3549;SDS011;45572;48.804;8.330;2022-10-16T10:50:48;3.87;;;1.67;;
3549;SDS011;45572;48.804;8.330;2022-10-16T10:53:28;3.73;;;0.90;;
3549;SDS011;45572;48.804;8.330;2022-10-16T10:56:08;4.07;;;1.93;;
3549;SDS011;45572;48.804;8.330;2022-10-16T10:58:47;3.50;;;1.53;;
3549;SDS011;45572;48.804;8.330;2022-10-16T11:01:25;3.47;;;1.37;;
3549;SDS011;45572;48.804;8.330;2022-10-16T11:04:06;1.87;;;1.30;;
3549;SDS011;45572;48.804;8.330;2022-10-16T11:06:46;2.70;;;1.00;;
3549;SDS011;45572;48.804;8.330;2022-10-16T11:09:20;4.53;;;1.47;;
3549;SDS011;45572;48.804;8.330;2022-10-16T11:11:53;3.87;;;1.03;;
3549;SDS011;45572;48.804;8.330;2022-10-16T11:14:28;2.50;;;0.93;;
3549;SDS011;45572;48.804;8.330;2022-10-16T11:17:00;2.40;;;1.03;;
3549;SDS011;45572;48.804;8.330;2022-10-16T11:19:37;4.33;;;1.40;;
3549;SDS011;45572;48.804;8.330;2022-10-16T11:22:11;3.03;;;1.20;;
3549;SDS011;45572;48.804;8.330;2022-10-16T11:24:45;5.90;;;1.57;;
3549;SDS011;45572;48.804;8.330;2022-10-16T11:27:20;5.93;;;1.53;;
3549;SDS011;45572;48.804;8.330;2022-10-16T11:29:55;2.73;;;1.20;;
3549;SDS011;45572;48.804;8.330;2022-10-16T11:32:27;2.20;;;1.40;;
3549;SDS011;45572;48.804;8.330;2022-10-16T11:35:02;3.00;;;1.30;;
3549;SDS011;45572;48.804;8.330;2022-10-16T11:37:36;3.50;;;1.20;;
3549;SDS011;45572;48.804;8.330;2022-10-16T11:40:15;9.13;;;1.27;;
3549;SDS011;45572;48.804;8.330;2022-10-16T11:42:51;3.70;;;1.10;;
3549;SDS011;45572;48.804;8.330;2022-10-16T11:49:44;4.17;;;1.30;;
3549;SDS011;45572;48.804;8.330;2022-10-16T11:52:14;3.77;;;1.60;;
3549;SDS011;45572;48.804;8.330;2022-10-16T11:54:49;3.10;;;1.80;;
3549;SDS011;45572;48.804;8.330;2022-10-16T11:57:22;7.03;;;1.83;;
3549;SDS011;45572;48.804;8.330;2022-10-16T11:59:55;5.60;;;1.43;;
3549;SDS011;45572;48.804;8.330;2022-10-16T12:02:52;4.97;;;2.20;;
3549;SDS011;45572;48.804;8.330;2022-10-16T12:05:28;2.70;;;1.37;;
3549;SDS011;45572;48.804;8.330;2022-10-16T12:08:08;4.40;;;1.33;;
3549;SDS011;45572;48.804;8.330;2022-10-16T12:10:38;2.77;;;1.40;;
3549;SDS011;45572;48.804;8.330;2022-10-16T12:16:07;4.77;;;1.57;;
3549;SDS011;45572;48.804;8.330;2022-10-16T12:18:50;5.63;;;1.70;;
3549;SDS011;45572;48.804;8.330;2022-10-16T12:21:37;6.90;;;1.30;;
3549;SDS011;45572;48.804;8.330;2022-10-16T12:24:06;4.13;;;1.27;;
3549;SDS011;45572;48.804;8.330;2022-10-16T12:26:46;3.23;;;1.10;;
3549;SDS011;45572;48.804;8.330;2022-10-16T12:29:20;2.80;;;1.40;;
3549;SDS011;45572;48.804;8.330;2022-10-16T12:31:54;7.70;;;1.60;;
3549;SDS011;45572;48.804;8.330;2022-10-16T12:34:27;4.80;;;1.50;;
3549;SDS011;45572;48.804;8.330;2022-10-16T12:37:07;2.90;;;1.23;;
3549;SDS011;45572;48.804;8.330;2022-10-16T12:39:37;2.03;;;1.60;;
3549;SDS011;45572;48.804;8.330;2022-10-16T12:42:17;4.60;;;1.27;;
3549;SDS011;45572;48.804;8.330;2022-10-16T12:44:49;4.97;;;1.70;;
3549;SDS011;45572;48.804;8.330;2022-10-16T12:47:19;6.03;;;1.73;;
3549;SDS011;45572;48.804;8.330;2022-10-16T12:49:50;7.10;;;1.40;;
3549;SDS011;45572;48.804;8.330;2022-10-16T12:52:24;6.63;;;1.57;;
3549;SDS011;45572;48.804;8.330;2022-10-16T12:54:56;3.17;;;1.40;;
3549;SDS011;45572;48.804;8.330;2022-10-16T12:57:29;2.10;;;1.57;;
3549;SDS011;45572;48.804;8.330;2022-10-16T13:00:09;3.17;;;1.07;;
3549;SDS011;45572;48.804;8.330;2022-10-16T13:02:59;1.73;;;1.30;;
3549;SDS011;45572;48.804;8.330;2022-10-16T13:05:50;3.33;;;1.40;;
3549;SDS011;45572;48.804;8.330;2022-10-16T13:08:35;4.70;;;2.30;;
3549;SDS011;45572;48.804;8.330;2022-10-16T13:11:17;2.73;;;1.30;;
3549;SDS011;45572;48.804;8.330;2022-10-16T13:13:55;3.03;;;1.40;;
3549;SDS011;45572;48.804;8.330;2022-10-16T13:16:40;4.80;;;1.30;;
3549;SDS011;45572;48.804;8.330;2022-10-16T13:19:19;4.87;;;1.80;;
3549;SDS011;45572;48.804;8.330;2022-10-16T13:21:58;9.17;;;1.60;;
3549;SDS011;45572;48.804;8.330;2022-10-16T13:24:42;2.47;;;1.67;;
3549;SDS011;45572;48.804;8.330;2022-10-16T13:27:22;4.30;;;2.23;;
3549;SDS011;45572;48.804;8.330;2022-10-16T13:30:00;7.60;;;1.50;;
3549;SDS011;45572;48.804;8.330;2022-10-16T13:32:36;5.57;;;1.80;;
3549;SDS011;45572;48.804;8.330;2022-10-16T13:35:18;3.40;;;2.00;;
3549;SDS011;45572;48.804;8.330;2022-10-16T13:37:49;7.40;;;1.93;;
3549;SDS011;45572;48.804;8.330;2022-10-16T13:40:18;1.60;;;1.40;;
3549;SDS011;45572;48.804;8.330;2022-10-16T13:42:48;4.10;;;2.27;;
3549;SDS011;45572;48.804;8.330;2022-10-16T13:45:17;2.90;;;1.40;;
3549;SDS011;45572;48.804;8.330;2022-10-16T13:47:46;3.57;;;2.20;;
3549;SDS011;45572;48.804;8.330;2022-10-16T13:50:15;7.43;;;1.70;;
3549;SDS011;45572;48.804;8.330;2022-10-16T13:52:44;4.97;;;2.53;;
3549;SDS011;45572;48.804;8.330;2022-10-16T13:55:14;3.83;;;1.93;;
3549;SDS011;45572;48.804;8.330;2022-10-16T13:57:44;3.30;;;1.70;;
3549;SDS011;45572;48.804;8.330;2022-10-16T14:00:17;12.60;;;2.43;;
3549;SDS011;45572;48.804;8.330;2022-10-16T14:02:50;5.40;;;1.90;;
3549;SDS011;45572;48.804;8.330;2022-10-16T14:05:22;3.73;;;1.67;;
3549;SDS011;45572;48.804;8.330;2022-10-16T14:07:53;4.93;;;2.33;;
3549;SDS011;45572;48.804;8.330;2022-10-16T14:10:25;9.20;;;2.37;;
3549;SDS011;45572;48.804;8.330;2022-10-16T14:12:55;8.93;;;2.23;;
3549;SDS011;45572;48.804;8.330;2022-10-16T14:15:24;9.97;;;4.00;;
3549;SDS011;45572;48.804;8.330;2022-10-16T14:17:52;9.80;;;2.80;;
3549;SDS011;45572;48.804;8.330;2022-10-16T14:20:22;5.60;;;1.73;;
3549;SDS011;45572;48.804;8.330;2022-10-16T14:23:00;5.73;;;2.03;;
3549;SDS011;45572;48.804;8.330;2022-10-16T14:25:32;9.70;;;2.60;;
3549;SDS011;45572;48.804;8.330;2022-10-16T14:28:00;4.00;;;2.20;;
3549;SDS011;45572;48.804;8.330;2022-10-16T14:30:31;9.67;;;1.90;;
3549;SDS011;45572;48.804;8.330;2022-10-16T14:33:01;2.57;;;1.83;;
3549;SDS011;45572;48.804;8.330;2022-10-16T14:35:31;7.60;;;2.30;;
3549;SDS011;45572;48.804;8.330;2022-10-16T14:38:00;6.50;;;2.57;;
3549;SDS011;45572;48.804;8.330;2022-10-16T14:40:30;5.80;;;3.90;;
3549;SDS011;45572;48.804;8.330;2022-10-16T14:43:00;4.60;;;2.47;;
3549;SDS011;45572;48.804;8.330;2022-10-16T14:45:30;7.57;;;2.37;;
3549;SDS011;45572;48.804;8.330;2022-10-16T14:48:00;3.00;;;1.70;;
3549;SDS011;45572;48.804;8.330;2022-10-16T14:50:32;3.40;;;2.50;;
3549;SDS011;45572;48.804;8.330;2022-10-16T14:53:00;6.77;;;2.77;;
3549;SDS011;45572;48.804;8.330;2022-10-16T14:55:28;3.13;;;1.80;;
3549;SDS011;45572;48.804;8.330;2022-10-16T14:57:58;10.87;;;3.20;;
3549;SDS011;45572;48.804;8.330;2022-10-16T15:00:26;4.83;;;3.03;;
3549;SDS011;45572;48.804;8.330;2022-10-16T15:02:54;4.30;;;2.13;;
3549;SDS011;45572;48.804;8.330;2022-10-16T15:05:22;3.90;;;2.80;;
3549;SDS011;45572;48.804;8.330;2022-10-16T15:07:53;3.63;;;2.03;;
3549;SDS011;45572;48.804;8.330;2022-10-16T15:10:22;4.83;;;2.60;;
3549;SDS011;45572;48.804;8.330;2022-10-16T15:12:58;4.57;;;2.77;;
3549;SDS011;45572;48.804;8.330;2022-10-16T15:15:29;13.53;;;2.80;;
3549;SDS011;45572;48.804;8.330;2022-10-16T15:18:01;8.13;;;2.30;;
3549;SDS011;45572;48.804;8.330;2022-10-16T15:20:29;2.97;;;2.00;;
3549;SDS011;45572;48.804;8.330;2022-10-16T15:23:00;6.70;;;2.97;;
3549;SDS011;45572;48.804;8.330;2022-10-16T15:25:30;7.83;;;3.40;;
3549;SDS011;45572;48.804;8.330;2022-10-16T15:28:02;7.93;;;2.47;;
3549;SDS011;45572;48.804;8.330;2022-10-16T15:30:31;8.67;;;2.40;;
3549;SDS011;45572;48.804;8.330;2022-10-16T15:32:59;5.70;;;2.43;;
3549;SDS011;45572;48.804;8.330;2022-10-16T15:35:29;6.20;;;3.40;;
3549;SDS011;45572;48.804;8.330;2022-10-16T15:37:57;2.93;;;2.40;;
3549;SDS011;45572;48.804;8.330;2022-10-16T15:40:25;4.83;;;2.60;;
3549;SDS011;45572;48.804;8.330;2022-10-16T15:42:53;19.17;;;3.17;;
3549;SDS011;45572;48.804;8.330;2022-10-16T15:45:22;3.70;;;2.67;;
3549;SDS011;45572;48.804;8.330;2022-10-16T15:47:50;12.60;;;4.00;;
3549;SDS011;45572;48.804;8.330;2022-10-16T15:50:18;5.60;;;3.10;;
3549;SDS011;45572;48.804;8.330;2022-10-16T15:52:49;10.87;;;2.80;;
3549;SDS011;45572;48.804;8.330;2022-10-16T15:55:17;8.93;;;2.53;;
3549;SDS011;45572;48.804;8.330;2022-10-16T15:57:45;8.90;;;3.50;;
3549;SDS011;45572;48.804;8.330;2022-10-16T16:00:14;3.07;;;2.30;;
3549;SDS011;45572;48.804;8.330;2022-10-16T16:02:48;5.27;;;2.80;;
3549;SDS011;45572;48.804;8.330;2022-10-16T16:05:17;13.17;;;2.80;;
3549;SDS011;45572;48.804;8.330;2022-10-16T16:07:46;14.13;;;3.70;;
3549;SDS011;45572;48.804;8.330;2022-10-16T16:10:14;8.50;;;3.50;;
3549;SDS011;45572;48.804;8.330;2022-10-16T16:12:42;4.80;;;3.27;;
3549;SDS011;45572;48.804;8.330;2022-10-16T16:15:10;14.13;;;3.00;;
3549;SDS011;45572;48.804;8.330;2022-10-16T16:17:38;6.20;;;2.93;;
3549;SDS011;45572;48.804;8.330;2022-10-16T16:20:07;5.77;;;3.10;;
3549;SDS011;45572;48.804;8.330;2022-10-16T16:22:35;9.53;;;2.70;;
3549;SDS011;45572;48.804;8.330;2022-10-16T16:25:03;8.77;;;4.50;;
3549;SDS011;45572;48.804;8.330;2022-10-16T16:27:32;15.90;;;4.50;;
3549;SDS011;45572;48.804;8.330;2022-10-16T16:30:00;5.63;;;3.80;;
3549;SDS011;45572;48.804;8.330;2022-10-16T16:32:29;8.10;;;4.23;;
3549;SDS011;45572;48.804;8.330;2022-10-16T16:34:57;13.33;;;4.90;;
3549;SDS011;45572;48.804;8.330;2022-10-16T16:37:26;5.30;;;3.53;;
3549;SDS011;45572;48.804;8.330;2022-10-16T16:39:55;7.27;;;3.77;;
3549;SDS011;45572;48.804;8.330;2022-10-16T16:42:24;7.03;;;4.47;;
3549;SDS011;45572;48.804;8.330;2022-10-16T16:44:52;4.93;;;3.90;;
3549;SDS011;45572;48.804;8.330;2022-10-16T16:47:20;21.20;;;4.70;;
3549;SDS011;45572;48.804;8.330;2022-10-16T16:49:48;7.37;;;4.43;;
3549;SDS011;45572;48.804;8.330;2022-10-16T16:52:16;14.43;;;4.67;;
3549;SDS011;45572;48.804;8.330;2022-10-16T16:54:47;21.07;;;5.83;;
3549;SDS011;45572;48.804;8.330;2022-10-16T16:57:20;8.97;;;5.07;;
3549;SDS011;45572;48.804;8.330;2022-10-16T16:59:49;9.50;;;5.37;;
3549;SDS011;45572;48.804;8.330;2022-10-16T17:02:17;11.03;;;4.80;;
3549;SDS011;45572;48.804;8.330;2022-10-16T17:04:45;12.77;;;5.17;;
3549;SDS011;45572;48.804;8.330;2022-10-16T17:07:13;9.50;;;4.77;;
3549;SDS011;45572;48.804;8.330;2022-10-16T17:09:43;16.63;;;5.10;;
3549;SDS011;45572;48.804;8.330;2022-10-16T17:12:12;9.30;;;5.30;;
3549;SDS011;45572;48.804;8.330;2022-10-16T17:14:40;11.27;;;5.93;;
3549;SDS011;45572;48.804;8.330;2022-10-16T17:17:08;13.20;;;6.27;;
3549;SDS011;45572;48.804;8.330;2022-10-16T17:19:36;13.13;;;4.70;;
3549;SDS011;45572;48.804;8.330;2022-10-16T17:22:04;12.50;;;5.13;;
3549;SDS011;45572;48.804;8.330;2022-10-16T17:24:31;7.03;;;5.00;;
3549;SDS011;45572;48.804;8.330;2022-10-16T17:27:03;8.43;;;5.40;;
3549;SDS011;45572;48.804;8.330;2022-10-16T17:29:32;10.90;;;5.40;;
3549;SDS011;45572;48.804;8.330;2022-10-16T17:32:00;9.70;;;6.00;;
3549;SDS011;45572;48.804;8.330;2022-10-16T17:34:28;12.93;;;5.50;;
3549;SDS011;45572;48.804;8.330;2022-10-16T17:36:55;13.30;;;7.93;;
3549;SDS011;45572;48.804;8.330;2022-10-16T17:39:23;16.13;;;6.03;;